Time;durP1;ratioP1;P1;durP2;ratioP2;P2;SDS_P1;SDS_P2;PMS_P1;PMS_P2;Temp;Humidity;BMP_temperature;BMP_pressure;BME280_temperature;BME280_humidity;BME280_pressure;Samples;Min_cycle;Max_cycle;Signal;HPM_P1;HPM_P2
2024/01/29 00:01:31;;;;;;;5.03;3.40;;;4.70;99.90;;;;;;5112370;28;20043;-76
2024/01/29 00:03:57;;;;;;;5.47;3.00;;;4.60;99.90;;;;;;5114457;28;20479;-76
2024/01/29 00:06:23;;;;;;;4.88;3.05;;;4.60;99.90;;;;;;5113377;28;20035;-76
2024/01/29 00:08:50;;;;;;;6.25;3.53;;;4.70;99.90;;;;;;5112391;28;20118;-77
2024/01/29 00:11:16;;;;;;;5.32;3.08;;;4.70;99.90;;;;;;5095693;28;20070;-77
2024/01/29 00:13:41;;;;;;;4.72;3.45;;;4.70;99.90;;;;;;5113140;28;20403;-76
2024/01/29 00:16:07;;;;;;;6.35;3.67;;;4.70;99.90;;;;;;5112434;28;20043;-76
2024/01/29 00:18:32;;;;;;;5.38;3.42;;;4.70;99.90;;;;;;5113455;28;20468;-76
2024/01/29 00:20:59;;;;;;;5.72;3.90;;;4.70;99.90;;;;;;5111846;28;20035;-76
2024/01/29 00:23:25;;;;;;;5.55;3.38;;;4.70;99.90;;;;;;5095429;28;20036;-77
2024/01/29 00:25:50;;;;;;;4.22;2.80;;;4.70;99.90;;;;;;5112879;28;20542;-76
2024/01/29 00:28:16;;;;;;;7.25;3.72;;;4.70;99.90;;;;;;5113834;28;20050;-76
2024/01/29 00:30:42;;;;;;;4.18;2.67;;;4.70;99.90;;;;;;5112025;28;20039;-77
2024/01/29 00:33:07;;;;;;;6.53;3.40;;;4.70;99.90;;;;;;5112193;28;20529;-76
2024/01/29 00:35:33;;;;;;;6.47;3.40;;;4.70;99.90;;;;;;5111847;28;20070;-76
2024/01/29 00:37:59;;;;;;;6.38;3.67;;;4.80;99.90;;;;;;5112950;28;20042;-77
2024/01/29 00:40:25;;;;;;;5.22;3.80;;;4.70;99.90;;;;;;5113435;28;20559;-77
2024/01/29 00:42:51;;;;;;;4.93;3.45;;;4.70;99.90;;;;;;5114511;28;20075;-77
2024/01/29 00:45:16;;;;;;;4.93;3.60;;;4.70;99.90;;;;;;5114397;28;20055;-77
2024/01/29 00:47:42;;;;;;;4.25;3.15;;;4.70;99.90;;;;;;5111669;28;20069;-77
2024/01/29 00:50:08;;;;;;;7.53;3.35;;;4.70;99.90;;;;;;5112866;28;20031;-76
2024/01/29 00:52:34;;;;;;;5.80;3.63;;;4.70;99.90;;;;;;5113121;28;20513;-76
2024/01/29 00:55:00;;;;;;;4.65;3.30;;;4.70;99.90;;;;;;5114076;28;20043;-77
2024/01/29 00:57:26;;;;;;;5.20;3.00;;;4.80;99.90;;;;;;5113413;28;20056;-77
2024/01/29 00:59:51;;;;;;;5.22;3.42;;;4.80;99.90;;;;;;5112946;28;20411;-77
2024/01/29 01:02:17;;;;;;;6.55;3.10;;;4.70;99.90;;;;;;5112162;28;20046;-76
2024/01/29 01:04:42;;;;;;;5.63;3.20;;;4.70;99.90;;;;;;5095334;28;20039;-77
2024/01/29 01:07:08;;;;;;;6.30;3.40;;;4.60;99.90;;;;;;5112811;28;20043;-77
2024/01/29 01:09:33;;;;;;;5.90;4.00;;;4.60;99.90;;;;;;5112572;28;20079;-77
2024/01/29 01:11:59;;;;;;;5.38;3.65;;;4.60;99.90;;;;;;5112738;28;20035;-77
2024/01/29 01:14:25;;;;;;;4.55;3.13;;;4.60;99.90;;;;;;5112908;28;20465;-76
2024/01/29 01:16:51;;;;;;;6.65;3.75;;;4.60;99.90;;;;;;5113551;28;20608;-76
2024/01/29 01:19:16;;;;;;;8.15;3.67;;;4.50;99.90;;;;;;5110809;28;20124;-77
2024/01/29 01:21:42;;;;;;;4.75;3.70;;;4.50;99.90;;;;;;5111251;28;20430;-76
2024/01/29 01:24:07;;;;;;;8.13;3.47;;;4.50;99.90;;;;;;5111097;28;20047;-75
2024/01/29 01:26:35;;;;;;;6.20;3.55;;;4.50;99.90;;;;;;5111216;28;20081;-75
2024/01/29 01:29:00;;;;;;;4.35;3.42;;;4.40;99.90;;;;;;5094065;28;20040;-75
2024/01/29 01:31:26;;;;;;;10.63;3.75;;;4.40;99.90;;;;;;5112245;28;20604;-75
2024/01/29 01:33:51;;;;;;;7.80;3.92;;;4.40;99.90;;;;;;5111590;28;20135;-75
2024/01/29 01:36:17;;;;;;;5.65;3.83;;;4.50;99.90;;;;;;5111158;28;20054;-75
2024/01/29 01:38:43;;;;;;;7.25;3.78;;;4.50;99.90;;;;;;5111112;28;20043;-76
2024/01/29 01:41:08;;;;;;;5.07;3.10;;;4.50;99.90;;;;;;5112170;28;20479;-75
2024/01/29 01:43:34;;;;;;;5.75;3.58;;;4.50;99.90;;;;;;5112168;28;20457;-74
2024/01/29 01:46:06;;;;;;;6.88;4.25;;;4.60;99.90;;;;;;5111022;28;20031;-75
2024/01/29 01:48:35;;;;;;;4.97;3.30;;;4.50;99.90;;;;;;5110810;28;20047;-75
2024/01/29 01:51:02;;;;;;;5.00;3.65;;;4.60;99.90;;;;;;5110632;28;20085;-75
2024/01/29 01:53:31;;;;;;;6.85;3.88;;;4.60;99.90;;;;;;5110766;28;20046;-76
2024/01/29 01:55:58;;;;;;;5.93;4.00;;;4.60;99.90;;;;;;5110644;28;20039;-75
2024/01/29 01:58:26;;;;;;;6.65;4.40;;;4.60;99.90;;;;;;5111343;28;20035;-75
2024/01/29 02:00:52;;;;;;;4.38;3.35;;;4.60;99.90;;;;;;5093481;28;20039;-77
2024/01/29 02:03:18;;;;;;;6.65;3.67;;;4.60;99.90;;;;;;5096805;28;20069;-77
2024/01/29 02:05:45;;;;;;;6.13;4.38;;;4.60;99.90;;;;;;5116631;28;20639;-76
2024/01/29 02:08:12;;;;;;;6.00;3.75;;;4.60;99.90;;;;;;5114667;28;20040;-77
2024/01/29 02:10:38;;;;;;;5.75;4.10;;;4.50;99.90;;;;;;5112780;28;20043;-76
2024/01/29 02:13:10;;;;;;;10.63;4.13;;;4.50;99.90;;;;;;5111222;28;20092;-76
2024/01/29 02:15:36;;;;;;;5.82;3.35;;;4.50;99.90;;;;;;5093585;28;20035;-76
2024/01/29 02:18:02;;;;;;;5.88;3.55;;;4.40;99.90;;;;;;5093384;28;20120;-77
2024/01/29 02:20:28;;;;;;;5.45;3.45;;;4.40;99.90;;;;;;5110172;28;20044;-76
2024/01/29 02:22:53;;;;;;;5.05;3.53;;;4.30;99.90;;;;;;5113123;28;20112;-76
2024/01/29 02:25:19;;;;;;;5.72;3.47;;;4.20;99.90;;;;;;5111052;28;20084;-76
2024/01/29 02:27:44;;;;;;;9.05;3.95;;;4.20;99.90;;;;;;5093638;28;20039;-76
2024/01/29 02:30:11;;;;;;;5.60;3.83;;;4.20;99.90;;;;;;5112532;28;20071;-76
2024/01/29 02:32:36;;;;;;;8.43;3.72;;;4.10;99.90;;;;;;5111309;28;20127;-76
2024/01/29 02:35:02;;;;;;;4.93;3.67;;;4.10;99.90;;;;;;5111483;28;20115;-76
2024/01/29 02:37:28;;;;;;;5.35;3.78;;;4.10;99.90;;;;;;5110510;28;20108;-76
2024/01/29 02:39:53;;;;;;;5.85;3.83;;;4.10;99.90;;;;;;5110632;28;20047;-76
2024/01/29 02:42:19;;;;;;;5.82;3.83;;;4.00;99.90;;;;;;5111527;28;20510;-76
2024/01/29 02:44:48;;;;;;;6.95;3.30;;;3.90;99.90;;;;;;5110338;28;20077;-76
2024/01/29 02:47:15;;;;;;;6.70;4.10;;;4.00;99.90;;;;;;5110176;28;20032;-76
2024/01/29 02:49:43;;;;;;;5.80;4.20;;;3.90;99.90;;;;;;5113734;28;20044;-76
2024/01/29 02:52:09;;;;;;;5.72;3.97;;;3.90;99.90;;;;;;5115325;27;20035;-77
2024/01/29 02:54:35;;;;;;;6.70;3.47;;;3.80;99.90;;;;;;5121965;28;20054;-76
2024/01/29 02:57:00;;;;;;;6.22;3.35;;;3.80;99.90;;;;;;5113728;28;20040;-76
2024/01/29 02:59:26;;;;;;;5.57;3.42;;;3.80;99.90;;;;;;5113593;28;20406;-76
2024/01/29 03:01:54;;;;;;;8.40;4.18;;;3.70;99.90;;;;;;5113686;28;20043;-76
2024/01/29 03:04:20;;;;;;;6.63;3.75;;;3.70;99.90;;;;;;5116727;28;20054;-76
2024/01/29 03:06:45;;;;;;;4.22;3.47;;;3.80;99.90;;;;;;5113919;28;20039;-76
2024/01/29 03:09:11;;;;;;;8.40;4.10;;;3.80;99.90;;;;;;5113363;28;20081;-76
2024/01/29 03:11:36;;;;;;;6.30;3.85;;;3.70;99.90;;;;;;5115373;28;20414;-76
2024/01/29 03:14:02;;;;;;;3.75;3.30;;;3.70;99.90;;;;;;5113472;28;20032;-76
2024/01/29 03:16:28;;;;;;;6.10;3.53;;;3.70;99.90;;;;;;5113430;28;20038;-76
2024/01/29 03:18:53;;;;;;;4.75;3.55;;;3.70;99.90;;;;;;5113513;28;20122;-76
2024/01/29 03:21:19;;;;;;;7.10;4.05;;;3.60;99.90;;;;;;5115496;28;20035;-76
2024/01/29 03:23:44;;;;;;;4.30;3.55;;;3.60;99.90;;;;;;5113315;28;20164;-77
2024/01/29 03:26:10;;;;;;;5.30;3.72;;;3.60;99.90;;;;;;5096634;28;20047;-76
2024/01/29 03:28:35;;;;;;;5.63;3.83;;;3.60;99.90;;;;;;5113032;28;20028;-77
2024/01/29 03:31:01;;;;;;;5.85;3.70;;;3.60;99.90;;;;;;5096282;28;20075;-77
2024/01/29 03:33:27;;;;;;;6.65;4.28;;;3.60;99.90;;;;;;5113212;28;20035;-76
2024/01/29 03:35:52;;;;;;;6.30;4.00;;;3.50;99.90;;;;;;5113015;28;20046;-75
2024/01/29 03:38:18;;;;;;;6.57;4.03;;;3.50;99.90;;;;;;5113253;28;20050;-76
2024/01/29 03:40:43;;;;;;;9.27;4.43;;;3.50;99.90;;;;;;5113073;28;20088;-76
2024/01/29 03:43:09;;;;;;;6.28;4.38;;;3.50;99.90;;;;;;5112882;28;20036;-76
2024/01/29 03:45:35;;;;;;;5.40;3.70;;;3.50;99.90;;;;;;5113063;28;20047;-76
2024/01/29 03:48:01;;;;;;;6.45;3.92;;;3.50;99.90;;;;;;5113037;28;20115;-76
2024/01/29 03:50:26;;;;;;;5.72;4.00;;;3.50;99.90;;;;;;5113941;28;20067;-76
2024/01/29 03:52:52;;;;;;;6.00;3.80;;;3.50;99.90;;;;;;5095773;28;20035;-76
2024/01/29 03:55:18;;;;;;;6.72;4.05;;;3.50;99.90;;;;;;5113000;28;20023;-76
2024/01/29 03:57:43;;;;;;;5.40;3.92;;;3.50;99.90;;;;;;5113714;28;20095;-77
2024/01/29 04:00:09;;;;;;;6.53;4.10;;;3.50;99.90;;;;;;5094274;28;20120;-76
2024/01/29 04:02:35;;;;;;;5.30;3.95;;;3.50;99.90;;;;;;5113885;28;20040;-76
2024/01/29 04:05:01;;;;;;;9.02;4.50;;;3.50;99.90;;;;;;5112472;28;20039;-76
2024/01/29 04:07:27;;;;;;;6.38;4.22;;;3.50;99.90;;;;;;5112306;28;20067;-76
2024/01/29 04:09:53;;;;;;;5.47;3.90;;;3.50;99.90;;;;;;5114036;28;20511;-76
2024/01/29 04:12:19;;;;;;;5.70;3.70;;;3.50;99.90;;;;;;5113586;28;20082;-76
2024/01/29 04:14:44;;;;;;;7.32;4.03;;;3.50;99.90;;;;;;5112220;28;20065;-76
2024/01/29 04:17:12;;;;;;;7.18;4.57;;;3.50;99.90;;;;;;5112468;28;20127;-76
2024/01/29 04:19:38;;;;;;;7.40;4.47;;;3.50;99.90;;;;;;5112091;28;20502;-77
2024/01/29 04:22:05;;;;;;;5.53;3.65;;;3.50;99.90;;;;;;5113500;28;20100;-77
2024/01/29 04:24:31;;;;;;;6.15;3.63;;;3.40;99.90;;;;;;5095250;28;20043;-76
2024/01/29 04:26:56;;;;;;;6.00;3.65;;;3.40;99.90;;;;;;5112218;28;20039;-77
2024/01/29 04:29:23;;;;;;;8.27;4.30;;;3.30;99.90;;;;;;5112090;28;20043;-76
2024/01/29 04:31:48;;;;;;;8.18;4.20;;;3.30;99.90;;;;;;5111914;28;20043;-77
2024/01/29 04:34:14;;;;;;;7.38;4.40;;;3.30;99.90;;;;;;5113391;28;20040;-76
2024/01/29 04:36:40;;;;;;;7.90;5.05;;;3.30;99.90;;;;;;5094555;28;20035;-76
2024/01/29 04:39:05;;;;;;;6.82;3.97;;;3.30;99.90;;;;;;5111851;28;20403;-75
2024/01/29 04:41:31;;;;;;;9.88;4.20;;;3.30;99.90;;;;;;5094458;28;20043;-76
2024/01/29 04:43:57;;;;;;;7.28;4.50;;;3.30;99.90;;;;;;5117668;28;20407;-76
2024/01/29 04:46:23;;;;;;;7.43;4.82;;;3.30;99.90;;;;;;5114368;28;20096;-76
2024/01/29 04:48:49;;;;;;;8.13;4.45;;;3.30;99.90;;;;;;5120969;28;20043;-76
2024/01/29 04:51:15;;;;;;;6.50;4.43;;;3.20;99.90;;;;;;5094935;28;20040;-76
2024/01/29 04:53:40;;;;;;;8.27;4.30;;;3.30;99.90;;;;;;5111643;28;20126;-76
2024/01/29 04:56:07;;;;;;;8.15;4.30;;;3.30;99.90;;;;;;5111363;28;20047;-76
2024/01/29 04:58:33;;;;;;;6.82;4.53;;;3.30;99.90;;;;;;5112870;28;20048;-76
2024/01/29 05:00:59;;;;;;;7.10;4.25;;;3.40;99.90;;;;;;5111381;28;20042;-76
2024/01/29 05:03:26;;;;;;;8.63;4.50;;;3.40;99.90;;;;;;5111383;28;20035;-76
2024/01/29 05:05:52;;;;;;;6.75;4.45;;;3.40;99.90;;;;;;5111449;28;20120;-76
2024/01/29 05:08:18;;;;;;;7.20;4.50;;;3.40;99.90;;;;;;5112482;28;20456;-76
2024/01/29 05:10:45;;;;;;;6.60;4.47;;;3.40;99.90;;;;;;5110814;28;20376;-76
2024/01/29 05:13:11;;;;;;;6.80;4.22;;;3.40;99.90;;;;;;5111320;28;20043;-76
2024/01/29 05:15:37;;;;;;;8.70;4.68;;;3.40;99.90;;;;;;5111458;28;20123;-77
2024/01/29 05:18:02;;;;;;;7.63;4.78;;;3.40;99.90;;;;;;5094118;28;20071;-76
2024/01/29 05:20:29;;;;;;;6.50;4.53;;;3.40;99.90;;;;;;5101857;28;20046;-76
2024/01/29 05:22:55;;;;;;;9.95;4.72;;;3.40;99.90;;;;;;5114054;28;20088;-76
2024/01/29 05:25:21;;;;;;;6.70;4.10;;;3.40;99.90;;;;;;5115048;28;20044;-76
2024/01/29 05:27:46;;;;;;;7.40;4.32;;;3.50;99.90;;;;;;5111875;28;20043;-76
2024/01/29 05:30:12;;;;;;;6.63;4.55;;;3.40;99.90;;;;;;5094016;28;20043;-76
2024/01/29 05:32:38;;;;;;;6.85;4.93;;;3.50;99.90;;;;;;5112302;28;20525;-76
2024/01/29 05:35:05;;;;;;;6.78;4.72;;;3.40;99.90;;;;;;5111218;28;20410;-75
2024/01/29 05:37:32;;;;;;;7.15;5.20;;;3.50;99.90;;;;;;5112048;28;20044;-76
2024/01/29 05:39:57;;;;;;;6.88;4.47;;;3.40;99.90;;;;;;5110530;28;20054;-76
2024/01/29 05:42:23;;;;;;;8.63;4.72;;;3.50;99.90;;;;;;5111701;28;20040;-76
2024/01/29 05:44:49;;;;;;;12.48;4.97;;;3.40;99.90;;;;;;5112114;28;20042;-76
2024/01/29 05:47:16;;;;;;;7.15;4.75;;;3.40;99.90;;;;;;5094140;28;20118;-76
2024/01/29 05:49:41;;;;;;;7.50;4.82;;;3.40;99.90;;;;;;5116216;28;20043;-76
2024/01/29 05:52:07;;;;;;;6.55;4.65;;;3.40;99.90;;;;;;5110803;28;20108;-76
2024/01/29 05:54:33;;;;;;;7.32;4.55;;;3.30;99.90;;;;;;5113775;28;20078;-76
2024/01/29 05:56:59;;;;;;;7.18;4.65;;;3.20;99.90;;;;;;5114359;28;20110;-76
2024/01/29 05:59:25;;;;;;;8.75;5.00;;;3.20;99.90;;;;;;5094576;28;20097;-76
2024/01/29 06:01:51;;;;;;;10.35;5.07;;;3.20;99.90;;;;;;5111872;28;20452;-76
2024/01/29 06:04:16;;;;;;;7.30;5.10;;;3.30;99.90;;;;;;5113892;28;20031;-76
2024/01/29 06:06:43;;;;;;;8.10;5.22;;;3.30;99.90;;;;;;5112379;28;20027;-76
2024/01/29 06:09:11;;;;;;;6.35;5.03;;;3.20;99.90;;;;;;5112628;28;20054;-76
2024/01/29 06:11:36;;;;;;;9.40;5.50;;;3.20;99.90;;;;;;5113324;28;20051;-76
2024/01/29 06:14:03;;;;;;;7.15;4.95;;;3.20;99.90;;;;;;5110801;28;20043;-75
2024/01/29 06:16:29;;;;;;;10.20;4.88;;;3.30;99.90;;;;;;5112232;28;20058;-76
2024/01/29 06:18:55;;;;;;;7.63;5.18;;;3.30;99.90;;;;;;5110717;28;20544;-75
2024/01/29 06:21:21;;;;;;;5.88;5.05;;;3.30;99.90;;;;;;5110374;28;20067;-77
2024/01/29 06:23:48;;;;;;;9.32;4.78;;;3.40;99.90;;;;;;5098403;28;20039;-78
2024/01/29 06:26:14;;;;;;;7.70;5.15;;;3.40;99.90;;;;;;5119192;28;20031;-77
2024/01/29 06:28:44;;;;;;;8.10;5.15;;;3.30;99.90;;;;;;5117206;28;20036;-77
2024/01/29 06:31:09;;;;;;;11.02;5.47;;;3.40;99.90;;;;;;5114745;28;20047;-76
2024/01/29 06:33:36;;;;;;;6.75;4.97;;;3.40;99.90;;;;;;5115629;28;20047;-76
2024/01/29 06:36:14;;;;;;;9.65;4.78;;;3.40;99.90;;;;;;5114294;28;20437;-76
2024/01/29 06:38:40;;;;;;;7.10;4.90;;;3.40;99.90;;;;;;5117587;28;20050;-76
2024/01/29 06:41:05;;;;;;;11.05;5.57;;;3.50;99.90;;;;;;5115027;28;20035;-76
2024/01/29 06:43:31;;;;;;;7.22;4.85;;;3.50;99.90;;;;;;5097006;28;20057;-76
2024/01/29 06:45:56;;;;;;;7.22;4.93;;;3.40;99.90;;;;;;5115361;28;20040;-76
2024/01/29 06:48:22;;;;;;;8.60;5.00;;;3.60;99.90;;;;;;5096767;28;20031;-75
2024/01/29 06:50:48;;;;;;;10.25;5.35;;;3.50;99.90;;;;;;5115219;28;20559;-76
2024/01/29 06:53:13;;;;;;;9.73;6.57;;;3.50;99.90;;;;;;5116163;28;20035;-76
2024/01/29 06:55:39;;;;;;;8.43;5.78;;;3.50;99.90;;;;;;5118909;28;20131;-77
2024/01/29 06:58:05;;;;;;;8.82;5.75;;;3.50;99.90;;;;;;5114848;28;20516;-72
2024/01/29 07:00:30;;;;;;;8.80;5.43;;;3.50;99.90;;;;;;5113174;28;20039;-73
2024/01/29 07:02:56;;;;;;;7.55;5.50;;;3.40;99.90;;;;;;5113811;28;20034;-72
2024/01/29 07:05:21;;;;;;;10.20;6.20;;;3.50;99.90;;;;;;5113562;28;20039;-72
2024/01/29 07:07:47;;;;;;;10.02;5.13;;;3.40;99.90;;;;;;5113293;28;20082;-72
2024/01/29 07:10:14;;;;;;;10.98;5.63;;;3.50;99.90;;;;;;5113207;28;20487;-74
2024/01/29 07:12:40;;;;;;;6.00;5.40;;;3.60;99.90;;;;;;5113557;28;20567;-74
2024/01/29 07:15:05;;;;;;;6.88;5.05;;;3.60;99.90;;;;;;5113814;28;20119;-74
2024/01/29 07:17:31;;;;;;;7.82;5.30;;;3.70;99.90;;;;;;5114851;27;20093;-74
2024/01/29 07:19:57;;;;;;;8.30;6.50;;;3.60;99.90;;;;;;5113175;28;20104;-74
2024/01/29 07:22:24;;;;;;;7.35;5.55;;;3.70;99.90;;;;;;5114767;28;20046;-74
2024/01/29 07:24:50;;;;;;;11.70;7.13;;;3.70;99.90;;;;;;5113398;28;20114;-75
2024/01/29 07:27:16;;;;;;;13.27;6.80;;;3.60;99.90;;;;;;5114690;28;20115;-74
2024/01/29 07:29:41;;;;;;;10.65;5.32;;;3.70;99.90;;;;;;5095979;28;20071;-76
2024/01/29 07:32:07;;;;;;;10.55;6.68;;;3.70;99.90;;;;;;5114594;28;20098;-75
2024/01/29 07:34:33;;;;;;;9.95;6.65;;;3.70;99.90;;;;;;5112997;28;20090;-75
2024/01/29 07:36:59;;;;;;;9.38;6.45;;;3.70;99.90;;;;;;5113378;28;20039;-75
2024/01/29 07:39:24;;;;;;;8.23;5.95;;;3.70;99.90;;;;;;5114221;28;20036;-73
2024/01/29 07:41:50;;;;;;;9.02;6.05;;;3.70;99.90;;;;;;5112848;28;20494;-73
2024/01/29 07:44:19;;;;;;;8.25;5.38;;;3.80;99.90;;;;;;5114242;28;20038;-72
2024/01/29 07:46:44;;;;;;;9.45;5.80;;;3.70;99.90;;;;;;5114123;28;20047;-72
2024/01/29 07:49:10;;;;;;;11.30;6.47;;;3.70;99.90;;;;;;5113882;27;20040;-73
2024/01/29 07:51:40;;;;;;;8.38;6.22;;;3.70;99.90;;;;;;5112673;28;20410;-73
2024/01/29 07:54:06;;;;;;;9.77;5.97;;;3.80;99.90;;;;;;5113979;28;20513;-73
2024/01/29 07:56:32;;;;;;;10.23;5.70;;;3.80;99.90;;;;;;5113873;28;20499;-73
2024/01/29 07:58:58;;;;;;;10.18;6.57;;;3.70;99.90;;;;;;5112381;28;20123;-74
2024/01/29 08:01:23;;;;;;;6.95;5.07;;;3.80;99.90;;;;;;5112555;28;20036;-73
2024/01/29 08:03:49;;;;;;;6.28;5.28;;;3.80;99.90;;;;;;5112795;28;20036;-73
2024/01/29 08:06:14;;;;;;;10.80;6.03;;;3.90;99.90;;;;;;5112471;28;20455;-73
2024/01/29 08:08:40;;;;;;;10.50;6.13;;;3.80;99.90;;;;;;5112338;28;20084;-75
2024/01/29 08:11:06;;;;;;;7.47;5.72;;;3.90;99.90;;;;;;5112030;28;20035;-75
2024/01/29 08:13:31;;;;;;;8.93;5.85;;;4.00;99.90;;;;;;5112590;28;20046;-74
2024/01/29 08:15:59;;;;;;;7.68;5.93;;;4.00;99.90;;;;;;5112202;28;20506;-73
2024/01/29 08:18:24;;;;;;;8.73;6.43;;;4.10;99.90;;;;;;5112190;28;20047;-74
2024/01/29 08:20:50;;;;;;;8.60;5.93;;;4.10;99.90;;;;;;5095138;28;20044;-74
2024/01/29 08:23:16;;;;;;;9.40;5.75;;;4.20;99.90;;;;;;5112136;28;20043;-74
2024/01/29 08:25:41;;;;;;;10.63;6.25;;;4.40;99.90;;;;;;5112163;28;20042;-73
2024/01/29 08:28:07;;;;;;;9.60;6.85;;;4.50;99.90;;;;;;5113154;28;20039;-73
2024/01/29 08:30:32;;;;;;;11.10;6.78;;;4.70;99.90;;;;;;5111682;28;20112;-73
2024/01/29 08:32:58;;;;;;;13.88;6.78;;;4.90;99.90;;;;;;5113369;28;20043;-73
2024/01/29 08:35:23;;;;;;;11.68;7.32;;;4.90;99.90;;;;;;5113264;27;20401;-73
2024/01/29 08:37:49;;;;;;;10.18;7.20;;;5.20;99.90;;;;;;5113226;28;20039;-73
2024/01/29 08:40:15;;;;;;;9.35;5.85;;;5.20;99.90;;;;;;5111857;28;20500;-73
2024/01/29 08:42:41;;;;;;;9.70;6.07;;;5.30;99.90;;;;;;5111621;28;20075;-74
2024/01/29 08:45:07;;;;;;;7.57;6.25;;;5.40;99.90;;;;;;5111230;28;20410;-73
2024/01/29 08:47:32;;;;;;;9.75;6.57;;;5.40;99.90;;;;;;5111640;28;20119;-73
2024/01/29 08:49:58;;;;;;;8.70;6.63;;;5.40;99.90;;;;;;5112786;28;20065;-73
2024/01/29 08:52:23;;;;;;;12.75;7.35;;;5.50;99.90;;;;;;5111707;28;20040;-73
2024/01/29 08:54:49;;;;;;;10.68;6.30;;;5.50;99.90;;;;;;5111588;28;20036;-73
2024/01/29 08:57:15;;;;;;;11.95;6.88;;;5.50;99.90;;;;;;5111472;28;20043;-73
2024/01/29 08:59:41;;;;;;;11.23;6.88;;;5.60;99.90;;;;;;5111228;28;20075;-73
2024/01/29 09:02:08;;;;;;;10.45;7.45;;;5.70;99.90;;;;;;5111397;28;20082;-73
2024/01/29 09:04:33;;;;;;;10.02;6.60;;;5.70;99.90;;;;;;5112800;28;20040;-73
2024/01/29 09:06:59;;;;;;;9.23;7.22;;;5.80;99.90;;;;;;5111252;28;20532;-73
2024/01/29 09:09:24;;;;;;;12.60;7.20;;;5.80;99.90;;;;;;5111013;28;20122;-73
2024/01/29 09:11:51;;;;;;;10.20;6.97;;;5.80;99.90;;;;;;5111053;28;20031;-73
2024/01/29 09:14:18;;;;;;;11.52;7.38;;;5.90;99.90;;;;;;5111214;28;20074;-74
2024/01/29 09:16:44;;;;;;;12.85;6.72;;;6.00;99.90;;;;;;5111114;28;20118;-73
2024/01/29 09:19:10;;;;;;;11.23;6.93;;;5.90;99.90;;;;;;5110826;28;20472;-73
2024/01/29 09:21:36;;;;;;;11.38;7.45;;;6.00;99.90;;;;;;5112228;28;20410;-73
2024/01/29 09:24:03;;;;;;;13.30;8.52;;;6.10;99.90;;;;;;5094356;28;20047;-73
2024/01/29 09:26:29;;;;;;;10.88;6.55;;;6.10;99.90;;;;;;5110982;28;20491;-73
2024/01/29 09:28:55;;;;;;;13.93;8.23;;;6.00;99.90;;;;;;5112042;28;20128;-73
2024/01/29 09:31:20;;;;;;;11.77;7.10;;;6.10;99.90;;;;;;5111150;28;20399;-73
2024/01/29 09:33:46;;;;;;;11.00;7.68;;;6.10;99.90;;;;;;5112412;28;20039;-73
2024/01/29 09:36:12;;;;;;;10.55;7.78;;;6.20;99.90;;;;;;5112392;28;20046;-73
2024/01/29 09:38:37;;;;;;;12.57;7.70;;;6.20;99.90;;;;;;5112163;28;20039;-73
2024/01/29 09:41:04;;;;;;;12.55;8.30;;;6.30;99.90;;;;;;5093813;28;20047;-73
2024/01/29 09:43:33;;;;;;;15.32;8.55;;;6.30;99.90;;;;;;5112100;28;20040;-73
2024/01/29 09:46:02;;;;;;;10.07;7.65;;;6.40;99.90;;;;;;5110805;28;20039;-74
2024/01/29 09:48:28;;;;;;;12.15;7.95;;;6.50;99.90;;;;;;5112103;28;20126;-74
2024/01/29 09:50:55;;;;;;;11.88;8.07;;;6.50;99.90;;;;;;5111990;28;20036;-73
2024/01/29 09:53:22;;;;;;;14.00;9.02;;;6.50;99.90;;;;;;5112103;28;20046;-73
2024/01/29 09:55:50;;;;;;;11.95;8.38;;;6.60;99.90;;;;;;5110784;28;20122;-73
2024/01/29 09:58:16;;;;;;;10.57;8.15;;;6.60;99.90;;;;;;5113594;28;20051;-73
2024/01/29 10:00:41;;;;;;;12.90;7.45;;;6.60;99.90;;;;;;5114665;28;20058;-74
2024/01/29 10:03:19;;;;;;;14.75;9.07;;;6.60;99.90;;;;;;5116371;28;20172;-73
2024/01/29 10:05:46;;;;;;;16.88;8.70;;;6.60;99.90;;;;;;5114825;28;20042;-74
2024/01/29 10:08:12;;;;;;;12.93;8.85;;;6.70;99.90;;;;;;5111063;28;20451;-73
2024/01/29 10:10:38;;;;;;;13.98;7.85;;;6.70;99.90;;;;;;5107592;28;20038;-73
2024/01/29 10:13:07;;;;;;;12.77;8.25;;;6.70;99.90;;;;;;5107937;28;20031;-73
2024/01/29 10:15:33;;;;;;;14.40;9.20;;;6.70;99.90;;;;;;5106466;28;20038;-73
2024/01/29 10:17:59;;;;;;;12.40;8.95;;;6.70;99.90;;;;;;5114773;28;20043;-73
2024/01/29 10:20:25;;;;;;;13.95;8.15;;;6.70;99.90;;;;;;5114368;28;20036;-73
2024/01/29 10:23:00;;;;;;;13.10;9.40;;;6.70;99.90;;;;;;5115800;28;20039;-73
2024/01/29 10:25:28;;;;;;;11.52;8.52;;;6.70;99.90;;;;;;5114228;28;20043;-73
2024/01/29 10:27:54;;;;;;;10.95;7.88;;;6.80;99.90;;;;;;5114300;28;20542;-73
2024/01/29 10:30:20;;;;;;;16.15;10.02;;;6.80;99.90;;;;;;5114103;28;20032;-76
2024/01/29 10:32:46;;;;;;;10.80;7.93;;;6.80;99.90;;;;;;5114276;28;20046;-72
2024/01/29 10:35:12;;;;;;;13.52;8.18;;;6.80;99.90;;;;;;5097204;28;20047;-76
2024/01/29 10:37:37;;;;;;;13.80;9.25;;;6.90;99.90;;;;;;5114502;28;20060;-73
2024/01/29 10:40:05;;;;;;;11.27;8.30;;;6.90;99.90;;;;;;5113904;28;20039;-74
2024/01/29 10:42:32;;;;;;;12.85;9.25;;;6.90;99.90;;;;;;5115447;28;20039;-73
2024/01/29 10:44:59;;;;;;;12.77;8.68;;;6.90;99.90;;;;;;5115468;28;20089;-74
2024/01/29 10:47:31;;;;;;;14.40;8.65;;;7.00;99.90;;;;;;5115156;28;20045;-75
2024/01/29 10:49:58;;;;;;;12.48;9.18;;;7.10;99.90;;;;;;5113710;28;20043;-68
2024/01/29 10:52:26;;;;;;;13.15;8.85;;;7.20;99.90;;;;;;5114587;28;20036;-69
2024/01/29 10:54:52;;;;;;;11.82;8.60;;;7.40;99.90;;;;;;5114944;28;20621;-70
2024/01/29 10:57:19;;;;;;;14.88;9.63;;;7.60;99.90;;;;;;5115135;28;20075;-70
2024/01/29 10:59:45;;;;;;;11.30;8.35;;;7.80;99.90;;;;;;5113535;28;20047;-70
2024/01/29 11:02:14;;;;;;;14.55;9.35;;;7.90;99.90;;;;;;5114919;28;20039;-72
2024/01/29 11:04:40;;;;;;;14.48;9.07;;;8.00;99.90;;;;;;5113630;28;20550;-69
2024/01/29 11:07:16;;;;;;;13.65;10.13;;;8.00;99.90;;;;;;5114771;28;20070;-69
2024/01/29 11:09:55;;;;;;;13.63;9.60;;;8.00;99.90;;;;;;5114175;28;20043;-69
2024/01/29 11:12:21;;;;;;;16.63;10.05;;;8.00;99.90;;;;;;5113487;28;20040;-69
2024/01/29 11:15:00;;;;;;;15.73;10.50;;;8.10;99.90;;;;;;5113411;28;20051;-69
2024/01/29 11:17:27;;;;;;;15.25;9.65;;;8.10;99.90;;;;;;5114492;28;20043;-69
2024/01/29 11:19:53;;;;;;;14.90;9.55;;;8.10;99.90;;;;;;5114380;28;20035;-68
2024/01/29 11:22:19;;;;;;;17.23;10.88;;;8.10;99.90;;;;;;5114489;28;20407;-69
2024/01/29 11:24:44;;;;;;;15.50;9.55;;;8.00;99.90;;;;;;5113522;28;20036;-69
2024/01/29 11:27:12;;;;;;;18.48;9.85;;;8.10;99.90;;;;;;5104098;28;20537;-68
2024/01/29 11:29:38;;;;;;;16.73;9.95;;;8.10;99.90;;;;;;5110005;28;20035;-68
2024/01/29 11:32:05;;;;;;;15.80;9.77;;;8.20;99.90;;;;;;5114105;28;20047;-68
2024/01/29 11:34:30;;;;;;;13.77;9.70;;;8.20;99.90;;;;;;5113912;28;20119;-68
2024/01/29 11:36:56;;;;;;;13.20;9.88;;;8.30;99.90;;;;;;5113736;28;20115;-68
2024/01/29 11:39:24;;;;;;;14.00;9.77;;;8.30;99.90;;;;;;5114002;28;20096;-69
2024/01/29 11:41:52;;;;;;;19.27;9.80;;;8.40;99.90;;;;;;5114185;28;20088;-68
2024/01/29 11:44:18;;;;;;;14.35;10.57;;;8.50;99.90;;;;;;5114076;28;20451;-69
2024/01/29 11:46:44;;;;;;;15.77;9.70;;;8.50;99.90;;;;;;5114293;28;20114;-69
2024/01/29 11:49:10;;;;;;;17.48;10.50;;;8.60;99.90;;;;;;5113769;28;20513;-69
2024/01/29 11:51:38;;;;;;;21.60;11.13;;;8.60;99.90;;;;;;5113972;28;20043;-69
2024/01/29 11:54:04;;;;;;;17.08;10.48;;;8.60;99.90;;;;;;5114125;28;20039;-69
2024/01/29 11:56:30;;;;;;;14.85;9.98;;;8.60;99.90;;;;;;5113260;28;20054;-69
2024/01/29 11:59:03;;;;;;;18.45;11.30;;;8.60;99.90;;;;;;5113477;28;20039;-69
2024/01/29 12:01:32;;;;;;;19.90;11.98;;;8.60;99.90;;;;;;5113936;28;20050;-69
2024/01/29 12:04:01;;;;;;;21.08;10.90;;;8.60;99.90;;;;;;5113975;28;20034;-69
2024/01/29 12:06:28;;;;;;;17.85;11.07;;;8.60;99.90;;;;;;5113794;28;20119;-68
2024/01/29 12:08:54;;;;;;;15.30;10.18;;;8.60;99.90;;;;;;5112984;28;20036;-69
2024/01/29 12:11:21;;;;;;;22.48;11.18;;;8.70;99.90;;;;;;5112028;28;20047;-69
2024/01/29 12:13:47;;;;;;;19.27;10.80;;;8.70;99.90;;;;;;5113636;28;20445;-69
2024/01/29 12:16:14;;;;;;;15.00;10.27;;;8.70;99.90;;;;;;5113477;28;20043;-69
2024/01/29 12:18:40;;;;;;;15.55;11.20;;;8.70;99.90;;;;;;5113422;27;20042;-69
2024/01/29 12:21:06;;;;;;;15.02;11.27;;;8.80;99.90;;;;;;5112274;28;20040;-69
2024/01/29 12:23:32;;;;;;;15.77;10.20;;;8.70;99.90;;;;;;5112130;28;20044;-68
2024/01/29 12:25:58;;;;;;;20.50;11.32;;;8.80;99.90;;;;;;5113328;28;20039;-69
2024/01/29 12:28:27;;;;;;;15.10;11.43;;;8.70;99.90;;;;;;5113458;28;20040;-68
2024/01/29 12:30:57;;;;;;;16.45;10.48;;;8.80;99.90;;;;;;5112969;28;20084;-70
2024/01/29 12:33:28;;;;;;;16.45;11.50;;;8.80;99.90;;;;;;5113403;28;20039;-70
2024/01/29 12:35:55;;;;;;;22.00;11.15;;;8.80;99.90;;;;;;5113252;28;20035;-67
2024/01/29 12:38:23;;;;;;;18.15;11.43;;;8.80;99.90;;;;;;5113183;28;20040;-68
2024/01/29 12:40:58;;;;;;;18.38;11.43;;;8.80;99.90;;;;;;5111467;28;20044;-69
2024/01/29 12:43:28;;;;;;;18.33;10.48;;;8.80;99.90;;;;;;5113310;28;20039;-70
2024/01/29 12:46:11;;;;;;;19.58;11.63;;;8.80;99.90;;;;;;5113157;28;20103;-70
2024/01/29 12:48:37;;;;;;;20.35;10.52;;;8.80;99.90;;;;;;5113218;28;20051;-70